Time;durP1;ratioP1;P1;durP2;ratioP2;P2;SDS_P1;SDS_P2;PMS_P1;PMS_P2;Temp;Humidity;BMP_temperature;BMP_pressure;BME280_temperature;BME280_humidity;BME280_pressure;Samples;Min_cycle;Max_cycle;Signal;HPM_P1;HPM_P2
2022/01/23 00:00:17;;;;;;;;;;;0.80;99.90;;;;;;5074726;28;20381;-73
2022/01/23 00:02:43;;;;;;;;;;;0.80;99.90;;;;;;5071548;28;19916;-73
2022/01/23 00:05:09;;;;;;;;;;;0.90;99.90;;;;;;5070879;28;19913;-73
2022/01/23 00:07:35;;;;;;;;;;;0.90;99.90;;;;;;5071499;28;19919;-73
2022/01/23 00:10:03;;;;;;;;;;;0.80;99.90;;;;;;5071109;28;19924;-73
2022/01/23 00:12:32;;;;;;;;;;;0.80;99.90;;;;;;5071618;28;20269;-73
2022/01/23 00:17:41;;;;;;;;;;;0.80;99.90;;;;;;5084548;28;19958;-73
2022/01/23 00:20:08;;;;;;;;;;;0.90;99.90;;;;;;5090687;28;19948;-72
2022/01/23 00:30:32;;;;;;;;;;;0.70;99.90;;;;;;5079096;28;19915;-73
2022/01/23 00:32:59;;;;;;;;;;;0.80;99.90;;;;;;5074601;28;19981;-73
2022/01/23 00:35:25;;;;;;;;;;;0.80;99.90;;;;;;5074835;28;20432;-73
2022/01/23 00:37:51;;;;;;;;;;;0.80;99.90;;;;;;5075301;28;20000;-72
2022/01/23 00:40:17;;;;;;;;;;;0.80;99.90;;;;;;5075218;28;19948;-73
2022/01/23 00:42:43;;;;;;;;;;;0.80;99.90;;;;;;5074636;28;20372;-73
2022/01/23 00:47:38;;;;;;;;;;;1.00;99.90;;;;;;5075014;28;19917;-73
2022/01/23 00:50:04;;;;;;;;;;;0.90;99.90;;;;;;5074745;28;19961;-73
2022/01/23 00:52:29;;;;;;;;;;;0.90;99.90;;;;;;5074535;28;19908;-73
2022/01/23 00:54:55;;;;;;;;;;;0.90;99.90;;;;;;5074157;28;19908;-72
2022/01/23 00:57:21;;;;;;;;;;;0.90;99.90;;;;;;5085088;28;19912;-73
2022/01/23 00:59:47;;;;;;;;;;;0.80;99.90;;;;;;5075890;28;20058;-73
2022/01/23 01:02:12;;;;;;;;;;;0.80;99.90;;;;;;5074402;28;19987;-73
2022/01/23 01:04:37;;;;;;;;;;;0.80;99.90;;;;;;5074359;28;19954;-73
2022/01/23 01:07:03;;;;;;;;;;;0.90;99.90;;;;;;5074387;28;20456;-72
2022/01/23 01:09:30;;;;;;;;;;;0.80;99.90;;;;;;5074401;28;19909;-73
2022/01/23 01:12:03;;;;;;;;;;;0.80;99.90;;;;;;5074327;28;19951;-73
2022/01/23 01:15:33;;;;;;;;;;;0.80;99.90;;;;;;5073428;28;19916;-73
2022/01/23 01:31:13;;;;;;;;;;;0.80;99.90;;;;;;5091533;28;19919;-73
2022/01/23 01:33:50;;;;;;;;;;;0.90;99.90;;;;;;5092786;28;19918;-73
2022/01/23 01:38:41;;;;;;;;;;;1.00;99.90;;;;;;5073875;28;19915;-73
2022/01/23 01:41:07;;;;;;;;;;;0.90;99.90;;;;;;5082008;28;19915;-73
2022/01/23 01:43:32;;;;;;;;;;;0.90;99.90;;;;;;5092314;28;20337;-73
2022/01/23 01:45:58;;;;;;;;;;;0.90;99.90;;;;;;5092973;28;19908;-73
2022/01/23 01:48:25;;;;;;;;;;;0.80;99.90;;;;;;5093033;28;19915;-73
2022/01/23 01:50:54;;;;;;;;;;;0.80;99.90;;;;;;5092838;28;19908;-73
2022/01/23 01:53:19;;;;;;;;;;;0.80;99.90;;;;;;5092875;28;19919;-73
2022/01/23 01:55:49;;;;;;;;;;;0.90;99.90;;;;;;5092370;28;19912;-73
2022/01/23 02:01:02;;;;;;;;;;;0.80;99.90;;;;;;5078325;28;19912;-73
2022/01/23 02:08:43;;;;;;;;;;;0.80;99.90;;;;;;5073461;28;19916;-73
2022/01/23 02:11:18;;;;;;;;;;;0.80;99.90;;;;;;5072982;28;19934;-73
2022/01/23 02:24:49;;;;;;;;;;;0.80;99.90;;;;;;5076934;28;20271;-73
2022/01/23 02:54:43;;;;;;;;;;;0.90;99.90;;;;;;5071585;28;19924;-73
2022/01/23 02:57:09;;;;;;;;;;;1.00;99.90;;;;;;5077100;28;19916;-73
2022/01/23 02:59:39;;;;;;;;;;;1.00;99.90;;;;;;5080750;28;19919;-73
2022/01/23 03:02:26;;;;;;;;;;;1.00;99.90;;;;;;5072168;28;19999;-73
2022/01/23 03:04:53;;;;;;;;;;;1.00;99.90;;;;;;5085882;28;19969;-73
2022/01/23 03:10:04;;;;;;;;;;;0.90;99.90;;;;;;5091370;28;19943;-72
2022/01/23 03:15:15;;;;;;;;;;;0.90;99.90;;;;;;5090698;28;20007;-73
2022/01/23 03:31:27;;;;;;;;;;;0.90;99.90;;;;;;5087527;28;19920;-73
2022/01/23 03:33:53;;;;;;;;;;;1.00;99.90;;;;;;5090593;28;19962;-73
2022/01/23 03:36:19;;;;;;;;;;;1.00;99.90;;;;;;5090789;28;19935;-72
2022/01/23 03:38:45;;;;;;;;;;;1.00;99.90;;;;;;5091090;28;20369;-72
2022/01/23 03:41:11;;;;;;;;;;;1.00;99.90;;;;;;5090798;28;19908;-72
2022/01/23 03:43:38;;;;;;;;;;;0.90;99.90;;;;;;5090528;28;20162;-73
2022/01/23 03:51:53;;;;;;;;;;;0.80;99.90;;;;;;5048702;28;19947;-73
2022/01/23 03:54:18;;;;;;;;;;;0.80;99.90;;;;;;5072703;28;20006;-73
2022/01/23 03:56:44;;;;;;;;;;;0.80;99.90;;;;;;5087277;28;19915;-73
2022/01/23 03:59:10;;;;;;;;;;;0.80;99.90;;;;;;5080887;28;19994;-73
2022/01/23 04:01:35;;;;;;;;;;;0.90;99.90;;;;;;5088825;28;19998;-72
2022/01/23 04:04:05;;;;;;;;;;;0.80;99.90;;;;;;5070911;28;20004;-73
2022/01/23 04:06:32;;;;;;;;;;;0.90;99.90;;;;;;5075368;28;19919;-73
2022/01/23 04:08:57;;;;;;;;;;;0.90;99.90;;;;;;5075339;28;19909;-72
2022/01/23 04:11:23;;;;;;;;;;;0.80;99.90;;;;;;5075357;28;19908;-73
2022/01/23 04:13:56;;;;;;;;;;;0.80;99.90;;;;;;5074578;28;19978;-73
2022/01/23 04:19:12;;;;;;;;;;;0.80;99.90;;;;;;5075297;28;19909;-73
2022/01/23 04:32:57;;;;;;;;;;;0.90;99.90;;;;;;5075355;28;19915;-73
2022/01/23 05:00:15;;;;;;;;;;;0.80;99.90;;;;;;5084582;28;19919;-73
2022/01/23 05:03:40;;;;;;;;;;;0.90;99.90;;;;;;5077288;28;19908;-72
2022/01/23 05:05:41;;;;;;;;;;;0.90;99.90;;;;;;5073940;28;20324;-73
2022/01/23 05:08:09;;;;;;;;;;;0.90;99.90;;;;;;5074400;28;19908;-72
2022/01/23 05:10:34;;;;;;;;;;;0.90;99.90;;;;;;5074111;28;19962;-73
2022/01/23 05:13:01;;;;;;;;;;;0.90;99.90;;;;;;5074052;28;19917;-73
2022/01/23 05:15:26;;;;;;;;;;;0.90;99.90;;;;;;5073816;28;19959;-73
2022/01/23 05:17:52;;;;;;;;;;;0.90;99.90;;;;;;5074094;28;19948;-73
2022/01/23 05:20:19;;;;;;;;;;;1.00;99.90;;;;;;5074089;28;19944;-73
2022/01/23 05:22:51;;;;;;;;;;;1.00;99.90;;;;;;5073778;28;19951;-73
2022/01/23 05:25:24;;;;;;;;;;;1.00;99.90;;;;;;5073764;28;19908;-73
2022/01/23 05:27:52;;;;;;;;;;;1.00;99.90;;;;;;5075842;28;19908;-73
2022/01/23 05:30:18;;;;;;;;;;;1.00;99.90;;;;;;5076014;28;19964;-73
2022/01/23 05:32:43;;;;;;;;;;;1.00;99.90;;;;;;5078797;28;19916;-72
2022/01/23 05:35:10;;;;;;;;;;;1.00;99.90;;;;;;5073474;28;19915;-73
2022/01/23 05:37:38;;;;;;;;;;;1.00;99.90;;;;;;5073616;28;19909;-73
2022/01/23 05:40:07;;;;;;;;;;;1.00;99.90;;;;;;5073844;28;19908;-73
2022/01/23 05:42:33;;;;;;;;;;;1.00;99.90;;;;;;5073641;28;20277;-73
2022/01/23 05:44:58;;;;;;;;;;;1.00;99.90;;;;;;5073258;28;19908;-73
2022/01/23 05:47:24;;;;;;;;;;;1.00;99.90;;;;;;5073493;28;20090;-72
2022/01/23 05:49:49;;;;;;;;;;;1.00;99.90;;;;;;5073482;28;20015;-73
2022/01/23 05:52:15;;;;;;;;;;;1.00;99.90;;;;;;5073461;28;20003;-73
2022/01/23 05:54:41;;;;;;;;;;;1.00;99.90;;;;;;5072848;28;19912;-73
2022/01/23 05:57:06;;;;;;;;;;;1.00;99.90;;;;;;5073463;28;20300;-73
2022/01/23 05:59:32;;;;;;;;;;;1.00;99.90;;;;;;5083590;28;19909;-73
2022/01/23 06:01:57;;;;;;;;;;;1.00;99.90;;;;;;5075717;28;20493;-73
2022/01/23 06:04:24;;;;;;;;;;;1.00;99.90;;;;;;5072834;28;19996;-73
2022/01/23 06:06:50;;;;;;;;;;;0.90;99.90;;;;;;5073201;28;19912;-73
2022/01/23 06:09:16;;;;;;;;;;;0.80;99.90;;;;;;5073061;28;19954;-73
2022/01/23 06:11:42;;;;;;;;;;;0.90;99.90;;;;;;5073217;28;20006;-73
2022/01/23 06:14:09;;;;;;;;;;;0.80;99.90;;;;;;5072505;28;20007;-73
2022/01/23 06:16:38;;;;;;;;;;;0.70;99.90;;;;;;5072916;28;20365;-73
2022/01/23 06:19:03;;;;;;;;;;;0.70;99.90;;;;;;5075457;28;19912;-73
2022/01/23 06:21:29;;;;;;;;;;;0.70;99.90;;;;;;5078588;28;19908;-72
2022/01/23 06:24:03;;;;;;;;;;;0.70;99.90;;;;;;5072682;28;20308;-73
2022/01/23 06:26:36;;;;;;;;;;;0.70;99.90;;;;;;5073163;28;19948;-74
2022/01/23 06:29:02;;;;;;;;;;;0.80;99.90;;;;;;5076668;28;19955;-73
2022/01/23 06:31:28;;;;;;;;;;;0.70;99.90;;;;;;5083897;28;20273;-73
2022/01/23 06:33:53;;;;;;;;;;;0.70;99.90;;;;;;5072266;28;19913;-73
2022/01/23 06:36:19;;;;;;;;;;;0.70;99.90;;;;;;5072447;28;20327;-73
2022/01/23 06:38:44;;;;;;;;;;;0.70;99.90;;;;;;5072768;28;19920;-73
2022/01/23 06:41:10;;;;;;;;;;;0.80;99.90;;;;;;5072889;28;20358;-72
2022/01/23 06:43:35;;;;;;;;;;;0.80;99.90;;;;;;5072187;28;19908;-74
2022/01/23 06:46:01;;;;;;;;;;;0.90;99.90;;;;;;5081227;28;19998;-73
2022/01/23 06:48:26;;;;;;;;;;;0.90;99.90;;;;;;5090538;28;20348;-72
2022/01/23 06:50:51;;;;;;;;;;;0.80;99.90;;;;;;5073587;28;19909;-73
2022/01/23 06:53:17;;;;;;;;;;;0.70;99.90;;;;;;5072683;28;19962;-73
2022/01/23 06:55:42;;;;;;;;;;;0.70;99.90;;;;;;5072281;28;19909;-73
2022/01/23 06:58:08;;;;;;;;;;;0.70;99.90;;;;;;5075529;28;20289;-73
2022/01/23 07:00:34;;;;;;;;;;;0.70;99.90;;;;;;5075645;28;19912;-73
2022/01/23 07:03:00;;;;;;;;;;;0.80;99.90;;;;;;5081311;28;19912;-74
2022/01/23 07:05:25;;;;;;;;;;;0.70;99.90;;;;;;5075637;28;19916;-72
2022/01/23 07:07:51;;;;;;;;;;;0.70;99.90;;;;;;5073183;28;20381;-73
2022/01/23 07:10:18;;;;;;;;;;;0.70;99.90;;;;;;5072506;28;19908;-72
2022/01/23 07:12:43;;;;;;;;;;;0.80;99.90;;;;;;5091600;28;19916;-73
2022/01/23 07:15:09;;;;;;;;;;;0.80;99.90;;;;;;5091189;28;19920;-73
2022/01/23 07:17:41;;;;;;;;;;;0.80;99.90;;;;;;5087720;28;19919;-73
2022/01/23 07:20:07;;;;;;;;;;;0.90;99.90;;;;;;5074005;28;19918;-73
2022/01/23 07:22:32;;;;;;;;;;;1.00;99.90;;;;;;5071974;28;19908;-73
2022/01/23 07:25:02;;;;;;;;;;;1.10;99.90;;;;;;5070730;28;19908;-72
2022/01/23 07:27:33;;;;;;;;;;;1.00;99.90;;;;;;5077582;28;19914;-72
2022/01/23 07:29:59;;;;;;;;;;;1.00;99.90;;;;;;5089683;28;20269;-73
2022/01/23 07:32:24;;;;;;;;;;;1.00;99.90;;;;;;5072091;28;19913;-73
2022/01/23 07:34:50;;;;;;;;;;;0.80;99.90;;;;;;5070895;28;19913;-71
2022/01/23 07:37:15;;;;;;;;;;;0.80;99.90;;;;;;5071870;28;20266;-71
2022/01/23 07:39:41;;;;;;;;;;;0.90;99.90;;;;;;5071674;28;20007;-73
2022/01/23 07:42:07;;;;;;;;;;;0.90;99.90;;;;;;5071860;28;19965;-73
2022/01/23 07:44:32;;;;;;;;;;;0.90;99.90;;;;;;5071366;28;19999;-73
2022/01/23 07:46:58;;;;;;;;;;;0.80;99.90;;;;;;5071747;28;19909;-73
2022/01/23 07:49:23;;;;;;;;;;;1.00;99.90;;;;;;5071722;28;19909;-73
2022/01/23 07:51:49;;;;;;;;;;;1.10;99.90;;;;;;5071376;28;19909;-74
2022/01/23 07:54:14;;;;;;;;;;;1.10;99.90;;;;;;5070034;28;20065;-73
2022/01/23 07:56:42;;;;;;;;;;;1.20;99.90;;;;;;5070418;28;19908;-73
2022/01/23 07:59:10;;;;;;;;;;;1.20;99.90;;;;;;5072340;28;19930;-73
2022/01/23 08:01:39;;;;;;;;;;;1.20;99.90;;;;;;5075876;28;19916;-73
2022/01/23 08:04:05;;;;;;;;;;;1.20;99.90;;;;;;5070277;28;20002;-73
2022/01/23 08:06:33;;;;;;;;;;;1.10;99.90;;;;;;5076821;28;20384;-73
2022/01/23 08:08:58;;;;;;;;;;;1.20;99.90;;;;;;5081623;28;20006;-73
2022/01/23 08:11:24;;;;;;;;;;;1.20;99.90;;;;;;5079216;28;20525;-73
2022/01/23 08:13:49;;;;;;;;;;;1.20;99.90;;;;;;5076643;28;19917;-73
2022/01/23 08:16:15;;;;;;;;;;;1.20;99.90;;;;;;5080743;28;20372;-73
2022/01/23 08:18:41;;;;;;;;;;;1.30;99.90;;;;;;5079870;28;19908;-73
2022/01/23 08:21:07;;;;;;;;;;;1.30;99.90;;;;;;5076755;28;20281;-73
2022/01/23 08:23:33;;;;;;;;;;;1.30;99.90;;;;;;5080145;28;19954;-73
2022/01/23 08:25:59;;;;;;;;;;;1.40;99.90;;;;;;5080756;28;20359;-73
2022/01/23 08:28:24;;;;;;;;;;;1.50;99.90;;;;;;5080543;28;20422;-73
2022/01/23 08:30:50;;;;;;;;;;;1.50;99.90;;;;;;5082748;28;20280;-73
2022/01/23 08:33:15;;;;;;;;;;;1.60;99.90;;;;;;5079518;28;20131;-73
2022/01/23 08:35:43;;;;;;;;;;;1.60;99.90;;;;;;5079508;28;19908;-73
2022/01/23 08:38:09;;;;;;;;;;;1.60;99.90;;;;;;5078476;28;19909;-73
2022/01/23 08:40:47;;;;;;;;;;;1.70;99.90;;;;;;5079880;28;19920;-73
2022/01/23 08:43:14;;;;;;;;;;;1.70;99.90;;;;;;5078995;28;19973;-73
2022/01/23 08:45:40;;;;;;;;;;;1.70;99.90;;;;;;5080264;28;19909;-73
2022/01/23 08:48:06;;;;;;;;;;;1.80;99.90;;;;;;5079159;28;19908;-73
2022/01/23 08:50:31;;;;;;;;;;;1.70;99.90;;;;;;5081329;28;19919;-73
2022/01/23 08:52:57;;;;;;;;;;;1.80;99.90;;;;;;5083731;28;19912;-73
2022/01/23 08:55:22;;;;;;;;;;;1.90;99.90;;;;;;5083283;28;19998;-74
2022/01/23 08:57:48;;;;;;;;;;;2.00;99.90;;;;;;5084505;28;20047;-73
2022/01/23 09:00:14;;;;;;;;;;;2.20;99.90;;;;;;5084383;28;19908;-74
2022/01/23 09:02:40;;;;;;;;;;;2.30;99.90;;;;;;5080574;28;19909;-74
2022/01/23 09:05:06;;;;;;;;;;;2.30;99.90;;;;;;5083871;28;20022;-74
2022/01/23 09:07:31;;;;;;;;;;;2.50;99.90;;;;;;5083626;28;19970;-73
2022/01/23 09:10:02;;;;;;;;;;;2.50;99.90;;;;;;5080578;28;19915;-73
2022/01/23 09:12:42;;;;;;;;;;;2.60;99.90;;;;;;5082530;28;19954;-74
2022/01/23 09:15:08;;;;;;;;;;;2.70;99.90;;;;;;5081702;28;19977;-74
2022/01/23 09:17:34;;;;;;;;;;;2.80;99.90;;;;;;5081403;28;19916;-73
2022/01/23 09:20:00;;;;;;;;;;;2.80;99.90;;;;;;5084386;28;20007;-73
2022/01/23 09:22:29;;;;;;;;;;;2.90;99.90;;;;;;5082706;28;19995;-74
2022/01/23 09:24:55;;;;;;;;;;;2.80;99.90;;;;;;5083196;28;20312;-73
2022/01/23 09:27:21;;;;;;;;;;;2.80;99.90;;;;;;5082276;28;19944;-73
2022/01/23 09:29:49;;;;;;;;;;;2.90;99.90;;;;;;5084381;28;20381;-73
2022/01/23 09:32:16;;;;;;;;;;;3.00;99.90;;;;;;5083930;28;19927;-73
2022/01/23 09:34:42;;;;;;;;;;;3.10;99.90;;;;;;5083533;28;19924;-73
2022/01/23 09:37:09;;;;;;;;;;;3.20;99.90;;;;;;5079280;28;20007;-74
2022/01/23 09:39:36;;;;;;;;;;;3.30;99.90;;;;;;5073060;28;19921;-73
2022/01/23 09:42:06;;;;;;;;;;;3.20;99.90;;;;;;5073903;28;20015;-73
2022/01/23 09:44:58;;;;;;;;;;;3.30;99.90;;;;;;5073900;28;19909;-73
2022/01/23 09:47:24;;;;;;;;;;;3.40;99.90;;;;;;5071285;28;19915;-73
2022/01/23 09:49:50;;;;;;;;;;;3.60;99.90;;;;;;5073960;28;19995;-74
2022/01/23 09:52:17;;;;;;;;;;;3.60;99.90;;;;;;5074106;28;19908;-73
2022/01/23 09:54:44;;;;;;;;;;;3.50;99.90;;;;;;5073550;28;19913;-73
2022/01/23 09:57:10;;;;;;;;;;;3.60;99.90;;;;;;5074252;28;19915;-74
2022/01/23 09:59:37;;;;;;;;;;;4.00;99.90;;;;;;5081598;28;19908;-74
2022/01/23 10:02:03;;;;;;;;;;;4.20;99.90;;;;;;5074182;28;19908;-73
2022/01/23 10:04:29;;;;;;;;;;;4.30;99.90;;;;;;5073215;28;20365;-72
2022/01/23 10:06:55;;;;;;;;;;;3.90;99.90;;;;;;5082286;28;20050;-72
2022/01/23 10:09:21;;;;;;;;;;;3.90;99.90;;;;;;5078895;28;19973;-72
2022/01/23 10:11:47;;;;;;;;;;;4.00;99.90;;;;;;5073334;28;19915;-72
2022/01/23 10:14:14;;;;;;;;;;;4.00;99.90;;;;;;5083859;28;19960;-72
2022/01/23 10:16:39;;;;;;;;;;;4.30;99.90;;;;;;5092885;28;19948;-72
2022/01/23 10:19:05;;;;;;;;;;;4.00;99.90;;;;;;5092575;28;20006;-72
2022/01/23 10:21:33;;;;;;;;;;;4.10;99.90;;;;;;5074946;28;19908;-72
2022/01/23 10:23:59;;;;;;;;;;;4.20;99.90;;;;;;5073133;28;19909;-73
2022/01/23 10:26:37;;;;;;;;;;;4.50;99.90;;;;;;5072871;28;20360;-73
2022/01/23 10:29:12;;;;;;;;;;;4.50;99.90;;;;;;5076286;28;20323;-72
2022/01/23 10:31:57;;;;;;;;;;;4.80;99.90;;;;;;5085717;28;19966;-72
2022/01/23 10:34:58;;;;;;;;;;;4.80;99.90;;;;;;5079850;28;20007;-72
2022/01/23 10:37:34;;;;;;;;;;;4.50;99.90;;;;;;5026761;28;19965;-72
2022/01/23 10:40:05;;;;;;;;;;;4.60;99.90;;;;;;5067358;28;19913;-73
2022/01/23 10:50:49;;;;;;;;;;;4.70;99.90;;;;;;5070576;28;19909;-72
2022/01/23 10:53:15;;;;;;;;;;;4.60;99.90;;;;;;5069372;28;20451;-72
2022/01/23 10:55:40;;;;;;;;;;;4.60;99.90;;;;;;5071130;28;19909;-72
2022/01/23 10:58:06;;;;;;;;;;;4.60;99.90;;;;;;5074359;28;19968;-72
2022/01/23 11:00:34;;;;;;;;;;;4.40;99.90;;;;;;5078955;28;19962;-72
2022/01/23 11:03:12;;;;;;;;;;;4.40;99.90;;;;;;5077073;28;20254;-72
2022/01/23 11:05:39;;;;;;;;;;;4.60;99.90;;;;;;5072058;28;19913;-73
2022/01/23 11:08:23;;;;;;;;;;;4.60;99.90;;;;;;5072090;28;20487;-72
2022/01/23 11:10:56;;;;;;;;;;;4.70;99.90;;;;;;5071990;28;19994;-72
2022/01/23 11:19:18;;;;;;;;;;;4.20;99.90;;;;;;5091697;28;19938;-73
2022/01/23 11:21:44;;;;;;;;;;;4.30;99.90;;;;;;5091408;28;19912;-72
2022/01/23 11:24:11;;;;;;;;;;;4.50;99.90;;;;;;5090992;28;20079;-72
2022/01/23 11:26:37;;;;;;;;;;;4.50;99.90;;;;;;5091378;28;20342;-72
2022/01/23 11:29:12;;;;;;;;;;;4.20;99.90;;;;;;5086608;28;19912;-72
2022/01/23 11:31:39;;;;;;;;;;;4.20;99.90;;;;;;5073905;28;19909;-72
2022/01/23 11:34:06;;;;;;;;;;;4.40;99.90;;;;;;5071351;28;19913;-72
2022/01/23 11:36:31;;;;;;;;;;;4.40;99.90;;;;;;5071805;28;19936;-72
2022/01/23 11:39:04;;;;;;;;;;;4.40;99.90;;;;;;5071861;28;19951;-72
2022/01/23 11:55:29;;;;;;;;;;;4.60;99.90;;;;;;5091042;28;19979;-72
2022/01/23 11:57:55;;;;;;;;;;;4.60;99.90;;;;;;5087631;28;20032;-74
2022/01/23 12:00:24;;;;;;;;;;;4.50;99.90;;;;;;5079117;28;19995;-72
2022/01/23 12:03:06;;;;;;;;;;;4.50;99.90;;;;;;5078771;28;19908;-72
2022/01/23 12:05:32;;;;;;;;;;;4.60;99.90;;;;;;5091047;28;19908;-72
2022/01/23 12:08:16;;;;;;;;;;;4.50;99.90;;;;;;5090729;28;19969;-73
2022/01/23 12:11:15;;;;;;;;;;;4.70;99.90;;;;;;5090720;28;20299;-73
2022/01/23 12:19:10;;;;;;;;;;;5.10;99.90;;;;;;5090594;28;20281;-72
2022/01/23 12:21:37;;;;;;;;;;;5.00;99.90;;;;;;5079650;28;19912;-72
2022/01/23 12:24:04;;;;;;;;;;;4.90;99.90;;;;;;5090210;28;19970;-72
2022/01/23 12:26:30;;;;;;;;;;;5.10;99.90;;;;;;5092847;28;19908;-72
2022/01/23 12:28:55;;;;;;;;;;;5.00;99.90;;;;;;5094460;28;20006;-72
2022/01/23 12:31:26;;;;;;;;;;;4.80;99.90;;;;;;5090353;28;19998;-72
2022/01/23 12:33:53;;;;;;;;;;;4.80;99.90;;;;;;5082211;28;20392;-73
2022/01/23 12:36:23;;;;;;;;;;;4.70;99.90;;;;;;5075195;28;19954;-73
2022/01/23 12:39:08;;;;;;;;;;;4.40;99.90;;;;;;5074934;28;19947;-72
2022/01/23 12:41:37;;;;;;;;;;;4.50;99.90;;;;;;5074930;28;20158;-72
2022/01/23 12:44:07;;;;;;;;;;;4.50;99.90;;;;;;5074284;28;19915;-73
2022/01/23 12:46:37;;;;;;;;;;;4.60;99.90;;;;;;5074802;28;19909;-73
2022/01/23 12:49:21;;;;;;;;;;;4.50;99.90;;;;;;5075048;28;19909;-73
2022/01/23 12:51:48;;;;;;;;;;;4.50;99.90;;;;;;5088372;28;19908;-73
2022/01/23 12:54:17;;;;;;;;;;;4.40;99.90;;;;;;5093853;28;19912;-73
2022/01/23 12:56:45;;;;;;;;;;;4.30;99.90;;;;;;5093882;28;19960;-73
2022/01/23 12:59:14;;;;;;;;;;;4.30;99.90;;;;;;5092752;28;20329;-73
2022/01/23 13:01:43;;;;;;;;;;;4.40;99.90;;;;;;5080014;28;19915;-72
2022/01/23 13:04:09;;;;;;;;;;;4.20;99.90;;;;;;5084009;28;20425;-73
2022/01/23 13:07:03;;;;;;;;;;;4.10;99.90;;;;;;5074354;28;19947;-73
2022/01/23 13:12:07;;;;;;;;;;;4.10;99.90;;;;;;5074433;28;19952;-73
2022/01/23 13:15:16;;;;;;;;;;;4.10;99.90;;;;;;5074061;28;19920;-75
2022/01/23 13:32:01;;;;;;;;;;;4.10;99.90;;;;;;5081717;28;19917;-73
2022/01/23 13:34:29;;;;;;;;;;;4.20;99.90;;;;;;5075076;28;19920;-73
2022/01/23 13:36:54;;;;;;;;;;;4.30;99.90;;;;;;5074772;28;20425;-73
2022/01/23 13:39:21;;;;;;;;;;;4.20;99.90;;;;;;5075074;28;19948;-73
2022/01/23 13:42:04;;;;;;;;;;;4.30;99.90;;;;;;5074395;28;19989;-72
2022/01/23 13:53:07;;;;;;;;;;;4.10;99.90;;;;;;5056100;28;19909;-72
2022/01/23 13:58:35;;;;;;;;;;;4.00;99.90;;;;;;5093574;28;19954;-72
2022/01/23 14:01:15;;;;;;;;;;;4.00;99.90;;;;;;5086671;28;19912;-72
2022/01/23 14:03:40;;;;;;;;;;;3.90;99.90;;;;;;5082253;28;19912;-73
2022/01/23 14:06:06;;;;;;;;;;;3.90;99.90;;;;;;5086974;28;20391;-72
2022/01/23 14:08:31;;;;;;;;;;;3.90;99.90;;;;;;5085377;28;19915;-72
2022/01/23 14:10:57;;;;;;;;;;;3.90;99.90;;;;;;5083472;28;19908;-73
2022/01/23 14:13:24;;;;;;;;;;;3.90;99.90;;;;;;5081628;28;20428;-74
2022/01/23 14:15:51;;;;;;;;;;;3.90;99.90;;;;;;5081391;28;19957;-72
2022/01/23 14:18:19;;;;;;;;;;;3.90;99.90;;;;;;5076352;28;19931;-72
2022/01/23 14:20:53;;;;;;;;;;;3.90;99.90;;;;;;5072675;28;19920;-72
2022/01/23 14:23:22;;;;;;;;;;;3.80;99.90;;;;;;5080107;28;20380;-73
2022/01/23 14:25:48;;;;;;;;;;;3.90;99.90;;;;;;5079612;28;20014;-72
2022/01/23 14:28:15;;;;;;;;;;;3.80;99.90;;;;;;5073028;28;19909;-72
2022/01/23 14:30:42;;;;;;;;;;;3.90;99.90;;;;;;5078603;28;19908;-72
2022/01/23 14:33:17;;;;;;;;;;;3.80;99.90;;;;;;5085324;28;19923;-72
2022/01/23 14:35:42;;;;;;;;;;;3.80;99.90;;;;;;5072928;28;20009;-72
2022/01/23 14:38:15;;;;;;;;;;;3.80;99.90;;;;;;5072798;28;19939;-72
2022/01/23 14:40:51;;;;;;;;;;;3.80;99.90;;;;;;5072496;28;20015;-73
2022/01/23 14:43:17;;;;;;;;;;;3.80;99.90;;;;;;5072548;28;19909;-73
2022/01/23 14:45:44;;;;;;;;;;;3.70;99.90;;;;;;5072815;28;19908;-72
2022/01/23 14:48:11;;;;;;;;;;;3.70;99.90;;;;;;5076699;28;20281;-72
2022/01/23 14:50:39;;;;;;;;;;;3.70;99.90;;;;;;5092276;28;19915;-72
2022/01/23 14:53:09;;;;;;;;;;;3.60;99.90;;;;;;5091677;28;19908;-72
2022/01/23 14:55:35;;;;;;;;;;;3.60;99.90;;;;;;5093163;28;19908;-72
2022/01/23 14:58:01;;;;;;;;;;;3.60;99.90;;;;;;5092079;28;20262;-72
2022/01/23 15:00:34;;;;;;;;;;;3.50;99.90;;;;;;5086983;28;19915;-72
2022/01/23 15:03:04;;;;;;;;;;;3.50;99.90;;;;;;5080071;28;20011;-71
2022/01/23 15:05:31;;;;;;;;;;;3.40;99.90;;;;;;5073149;28;20909;-72
2022/01/23 15:07:56;;;;;;;;;;;3.30;99.90;;;;;;5072396;28;19958;-72
2022/01/23 15:10:22;;;;;;;;;;;3.20;99.90;;;;;;5072331;28;20316;-72
2022/01/23 15:12:47;;;;;;;;;;;3.30;99.90;;;;;;5072263;28;19909;-71
2022/01/23 15:15:13;;;;;;;;;;;3.30;99.90;;;;;;5071837;28;19917;-71
2022/01/23 15:17:39;;;;;;;;;;;3.40;99.90;;;;;;5072239;28;19908;-72
2022/01/23 15:20:05;;;;;;;;;;;3.30;99.90;;;;;;5072220;28;19912;-72
2022/01/23 15:22:31;;;;;;;;;;;3.30;99.90;;;;;;5071897;28;19908;-72
2022/01/23 15:24:56;;;;;;;;;;;3.30;99.90;;;;;;5071643;28;19909;-72
2022/01/23 15:27:22;;;;;;;;;;;3.20;99.90;;;;;;5071855;28;19954;-72
2022/01/23 15:29:47;;;;;;;;;;;3.20;99.90;;;;;;5072298;28;19909;-72
2022/01/23 15:32:13;;;;;;;;;;;3.20;99.90;;;;;;5089351;28;19908;-72
2022/01/23 15:34:39;;;;;;;;;;;3.10;99.90;;;;;;5078008;28;20390;-72
2022/01/23 15:37:04;;;;;;;;;;;3.10;99.90;;;;;;5071597;28;19909;-73
2022/01/23 15:39:31;;;;;;;;;;;2.90;99.90;;;;;;5071334;28;19912;-72
2022/01/23 15:41:57;;;;;;;;;;;2.80;99.90;;;;;;5071828;28;19919;-72
2022/01/23 15:44:23;;;;;;;;;;;2.80;99.90;;;;;;5071214;28;19909;-72
2022/01/23 15:46:50;;;;;;;;;;;2.80;99.90;;;;;;5071633;28;19958;-73
2022/01/23 15:49:16;;;;;;;;;;;2.90;99.90;;;;;;5071480;28;20341;-73
2022/01/23 15:51:47;;;;;;;;;;;3.00;99.90;;;;;;5071441;28;19912;-72
2022/01/23 15:54:13;;;;;;;;;;;3.00;99.90;;;;;;5070948;28;19965;-72
2022/01/23 15:56:38;;;;;;;;;;;3.10;99.90;;;;;;5071362;28;20422;-72
2022/01/23 15:59:04;;;;;;;;;;;3.10;99.90;;;;;;5071304;28;19908;-72
2022/01/23 16:01:29;;;;;;;;;;;3.10;99.90;;;;;;5076858;28;20392;-72
2022/01/23 16:03:55;;;;;;;;;;;3.00;99.90;;;;;;5077171;28;19998;-72
2022/01/23 16:06:20;;;;;;;;;;;2.90;99.90;;;;;;5075706;28;19974;-72
2022/01/23 16:08:46;;;;;;;;;;;2.90;99.90;;;;;;5071487;28;19912;-72
2022/01/23 16:11:11;;;;;;;;;;;2.80;99.90;;;;;;5071198;28;19915;-73
2022/01/23 16:13:37;;;;;;;;;;;2.70;99.90;;;;;;5070970;28;19982;-72
2022/01/23 16:16:02;;;;;;;;;;;2.60;99.90;;;;;;5071274;28;20414;-72
2022/01/23 16:18:28;;;;;;;;;;;2.50;99.90;;;;;;5071261;28;19988;-72
2022/01/23 16:20:53;;;;;;;;;;;2.50;99.90;;;;;;5071197;28;19908;-72
2022/01/23 16:23:19;;;;;;;;;;;2.60;99.90;;;;;;5070849;28;20380;-72
2022/01/23 16:25:45;;;;;;;;;;;2.70;99.90;;;;;;5071251;28;19916;-72
2022/01/23 16:28:10;;;;;;;;;;;2.80;99.90;;;;;;5071454;28;19908;-72
2022/01/23 16:31:02;;;;;;;;;;;2.80;99.90;;;;;;5072757;28;19915;-74
2022/01/23 16:33:28;;;;;;;;;;;2.80;99.90;;;;;;5076245;28;20349;-72
2022/01/23 16:35:54;;;;;;;;;;;2.80;99.90;;;;;;5071244;28;19909;-74
2022/01/23 16:38:19;;;;;;;;;;;2.80;99.90;;;;;;5071055;28;20042;-72
2022/01/23 16:40:46;;;;;;;;;;;2.80;99.90;;;;;;5071133;28;19920;-72
2022/01/23 16:43:13;;;;;;;;;;;2.70;99.90;;;;;;5070743;28;19951;-72
2022/01/23 16:45:38;;;;;;;;;;;2.80;99.90;;;;;;5070988;28;19909;-72
2022/01/23 16:48:04;;;;;;;;;;;2.70;99.90;;;;;;5070899;28;19935;-72
2022/01/23 16:50:30;;;;;;;;;;;2.70;99.90;;;;;;5071165;28;19909;-72
2022/01/23 16:52:55;;;;;;;;;;;2.70;99.90;;;;;;5070632;28;19912;-72
2022/01/23 16:55:21;;;;;;;;;;;2.70;99.90;;;;;;5070787;28;19962;-72
2022/01/23 16:57:46;;;;;;;;;;;2.70;99.90;;;;;;5078343;28;19979;-72
2022/01/23 17:00:12;;;;;;;;;;;2.70;99.90;;;;;;5077175;28;19909;-72
2022/01/23 17:02:38;;;;;;;;;;;2.70;99.90;;;;;;5075520;28;19915;-72
2022/01/23 17:05:04;;;;;;;;;;;2.80;99.90;;;;;;5078991;28;19919;-72
2022/01/23 17:07:30;;;;;;;;;;;2.60;99.90;;;;;;5070925;28;20286;-72
2022/01/23 17:09:55;;;;;;;;;;;2.70;99.90;;;;;;5075060;28;19916;-72
2022/01/23 17:12:21;;;;;;;;;;;2.70;99.90;;;;;;5082872;28;19953;-72
2022/01/23 17:14:46;;;;;;;;;;;2.70;99.90;;;;;;5074382;28;19916;-72
2022/01/23 17:17:12;;;;;;;;;;;2.70;99.90;;;;;;5083539;28;20006;-72
2022/01/23 17:19:37;;;;;;;;;;;2.70;99.90;;;;;;5074545;28;19909;-72
2022/01/23 17:22:03;;;;;;;;;;;2.60;99.90;;;;;;5093451;28;19908;-74
2022/01/23 17:24:29;;;;;;;;;;;2.60;99.90;;;;;;5075782;28;20007;-73
2022/01/23 17:26:55;;;;;;;;;;;2.60;99.90;;;;;;5100809;28;19907;-73
2022/01/23 17:29:20;;;;;;;;;;;2.60;99.90;;;;;;5075496;28;19943;-73
2022/01/23 17:31:48;;;;;;;;;;;2.60;99.90;;;;;;5078639;28;19908;-73
2022/01/23 17:34:14;;;;;;;;;;;2.50;99.90;;;;;;5080527;28;19920;-75
2022/01/23 17:36:39;;;;;;;;;;;2.50;99.90;;;;;;5074061;28;19909;-74
2022/01/23 17:39:05;;;;;;;;;;;2.50;99.90;;;;;;5085929;28;19919;-73
2022/01/23 17:41:30;;;;;;;;;;;2.40;99.90;;;;;;5080368;28;19909;-73
2022/01/23 17:43:56;;;;;;;;;;;2.50;99.90;;;;;;5087835;28;19942;-73
2022/01/23 17:46:22;;;;;;;;;;;2.50;99.90;;;;;;5089046;28;19999;-73
2022/01/23 17:49:03;;;;;;;;;;;2.50;99.90;;;;;;5089945;28;19908;-75
2022/01/23 17:51:29;;;;;;;;;;;2.60;99.90;;;;;;5078514;28;19908;-73
2022/01/23 17:53:55;;;;;;;;;;;2.40;99.90;;;;;;5075649;28;19916;-73
2022/01/23 17:56:20;;;;;;;;;;;2.30;99.90;;;;;;5077969;28;19915;-73